Texas General Land Office
 Texas General Land Office
 George P. Bush, Commissioner

 Oil Spill Prevention
 & Response

Texas Automated Buoy System
Real Time Ocean Observations
Supporting Oil Spill Prevention and
Response since 1995
Geochemical and Environmental Research Group

NOAA - NDBC Buoy 42020 -- Texas Automated Buoy System

NBDC Buoy 42020
Corpus Christi, TX
Conditions at 06/22/2018 19:21 UTC (06/22/2018 14:21 CDT)
26° 57.0000'N   96° 42.0000'W
50nm Southeast of Corpus Christi, TX
Anemometer height: 5m
Water Depth: 252 feet (77 meters)
Wind: 0.0 m/s (0.0 kts)
          From 0°T (N)
Wind Gust: 0.00 m/s (0.0 kts) Pressure: 0.0 mb (0.00 inHg)
Air Temp: 0°C (32 °F) Dewpoint: 0°C (32°F) Relative Humidity: 0%
Sea Surf Temp: 0 °C (32 °F) Wave Height: 0.0m (0.0 ft) Wave Period: 0
  


IMPORTANT: Notice to Mariners


Today's Velocity Data

  Buoy     Date      Time     East   North   Speed  Dir(°T) Wave Ht WvPer  Num
|  ID  |          |  (UTC) | (m/s) | (m/s) | (m/s) |(FROM) |  (m)  | secs| pts |
+======+==========+========+=======+=======+=======+=======+=======+=====+=====+
  42020 05/03/2018 00:10:00    6.89   -5.79    9.00     130     1.7     0     1
  42020 05/03/2018 00:20:00    5.79   -6.89    9.00     140     1.7     7     1
  42020 05/03/2018 00:30:00    5.14   -6.13    8.00     140     0.0     0     1
  42020 05/03/2018 00:40:00    5.14   -6.13    8.00     140     0.0     0     1
  42020 05/03/2018 00:50:00    5.14   -6.13    8.00     140     0.0     0     1
  42020 05/03/2018 06:00:00    7.16   -7.16   10.12     135     0.6     1    31
  42020 05/03/2018 06:10:00    7.07   -8.43   11.00     140     2.3     0     1
  42020 05/03/2018 06:20:00    7.07   -8.43   11.00     140     2.3     7     1
  42020 05/03/2018 06:30:00    7.07   -8.43   11.00     140     0.0     0     1
  42020 05/03/2018 06:40:00    7.07   -8.43   11.00     140     0.0     0     1
  42020 05/03/2018 06:50:00    5.50   -9.53   11.00     150     0.0     0     1
  42020 05/03/2018 12:00:00    5.09   -7.95    9.44     147     0.6     1    31
  42020 05/03/2018 12:10:00    2.39   -6.58    7.00     160     2.0     0     1
  42020 05/03/2018 12:20:00    2.39   -6.58    7.00     160     2.0     8     1
  42020 05/03/2018 12:30:00    3.50   -6.06    7.00     150     0.0     0     1
  42020 05/03/2018 12:40:00    3.50   -6.06    7.00     150     0.0     0     1
  42020 05/03/2018 12:50:00    3.50   -6.06    7.00     150     0.0     0     1
  42020 05/03/2018 18:00:00    3.92   -7.40    8.37     152     0.5     1    31
  42020 05/03/2018 18:10:00    4.50   -7.79    9.00     150     1.9     0     1
  42020 05/03/2018 18:20:00    4.50   -7.79    9.00     150     1.9     8     1
  42020 05/03/2018 18:30:00    4.00   -6.93    8.00     150     0.0     0     1
  42020 05/03/2018 18:40:00    2.74   -7.52    8.00     160     0.0     0     1
  42020 05/03/2018 18:50:00    2.74   -7.52    8.00     160     0.0     0     1
  42020 05/04/2018 00:00:00    3.60   -4.84    6.03     143     0.5     1    30
  42020 05/04/2018 00:10:00    6.06   -3.50    7.00     120     0.0     0     1
  42020 05/04/2018 00:20:00    6.58   -2.39    7.00     110     1.7     7     1
  42020 05/04/2018 00:30:00    6.58   -2.39    7.00     110     0.0     0     1
  42020 05/04/2018 00:40:00    6.58   -2.39    7.00     110     0.0     0     1
  42020 05/04/2018 00:50:00    6.58   -2.39    7.00     110     0.0     0     1
  42020 05/04/2018 06:00:00    7.15   -3.13    7.81     114     0.4     1    31
  42020 05/04/2018 06:10:00    7.79   -4.50    9.00     120     1.6     0     1
  42020 05/04/2018 06:20:00    7.79   -4.50    9.00     120     1.6     7     1
  42020 05/04/2018 06:30:00    6.89   -5.79    9.00     130     0.0     0     1
  42020 05/04/2018 06:40:00    6.89   -5.79    9.00     130     0.0     0     1
  42020 05/04/2018 06:50:00    6.89   -5.79    9.00     130     0.0     0     1
  42020 05/04/2018 12:00:00    6.39   -4.99    8.11     128     0.3     1    31
  42020 05/04/2018 12:10:00    5.36   -4.50    7.00     130     1.5     0     1
  42020 05/04/2018 12:20:00    6.93   -4.00    8.00     120     1.5     8     1
  42020 05/04/2018 12:30:00    6.13   -5.14    8.00     130     0.0     0     1
  42020 05/04/2018 12:40:00    6.13   -5.14    8.00     130     0.0     0     1
  42020 05/04/2018 12:50:00    6.13   -5.14    8.00     130     0.0     0     1
  42020 05/04/2018 18:00:00    6.11   -5.01    7.90     129     0.3     1    31
  42020 05/04/2018 18:10:00    5.36   -4.50    7.00     130     0.0     0     1
  42020 05/04/2018 18:20:00    5.36   -4.50    7.00     130     1.5     8     1
  42020 05/04/2018 18:30:00    5.20   -3.00    6.00     120     0.0     0     1
  42020 05/04/2018 18:40:00    5.20   -3.00    6.00     120     0.0     0     1
  42020 05/04/2018 18:50:00    6.06   -3.50    7.00     120     0.0     0     1
  42020 05/05/2018 00:00:00    5.18   -1.03    5.28     101     0.3     1    31
  42020 05/05/2018 00:10:00    5.91    1.04    6.00      80     0.0     0     1
  42020 05/05/2018 00:20:00    5.91    1.04    6.00      80     1.4     7     1
  42020 05/05/2018 00:30:00    6.89    1.22    7.00      80     0.0     0     1
  42020 05/05/2018 00:40:00    5.91    1.04    6.00      80     0.0     0     1
  42020 05/05/2018 00:50:00    6.89    1.22    7.00      80     0.0     0     1
  42020 05/05/2018 06:00:00    6.81    0.11    6.81      89     0.3     1    31
  42020 05/05/2018 06:10:00    5.00    0.00    5.00      90     0.0     0     1
  42020 05/05/2018 06:20:00    5.00    0.00    5.00      90     1.2     7     1
  42020 05/05/2018 06:30:00    5.00    0.00    5.00      90     0.0     0     1
  42020 05/05/2018 06:40:00    4.92    0.87    5.00      80     0.0     0     1
  42020 05/05/2018 06:50:00    4.92    0.87    5.00      80     0.0     0     1
  42020 05/05/2018 12:00:00    2.08    0.79    2.23      69     0.4     1    31
  42020 05/05/2018 12:10:00    0.52    2.95    3.00      10     1.0     0     1
  42020 05/05/2018 12:20:00    0.00    3.00    3.00       0     1.0     7     1
  42020 05/05/2018 12:30:00    0.00    3.00    3.00       0     0.0     0     1
  42020 05/05/2018 12:40:00    0.00    3.00    3.00       0     0.0     0     1
  42020 05/05/2018 12:50:00    0.00    3.00    3.00       0     0.0     0     1
  42020 05/05/2018 18:00:00    0.34    5.90    5.91       3     0.2     1    31
  42020 05/05/2018 18:10:00    1.22    6.89    7.00      10     0.0     0     1
  42020 05/05/2018 18:20:00    1.22    6.89    7.00      10     1.2     8     1
  42020 05/05/2018 18:30:00    1.22    6.89    7.00      10     0.0     0     1
  42020 05/05/2018 18:40:00    2.39    6.58    7.00      20     0.0     0     1
  42020 05/05/2018 18:50:00    2.39    6.58    7.00      20     0.0     0     1
  42020 05/06/2018 00:00:00    2.97    2.64    3.97      48     0.2     1    31
  42020 05/06/2018 00:10:00    4.70    1.71    5.00      70     0.0     0     1
  42020 05/06/2018 00:20:00    4.70    1.71    5.00      70     0.9     6     1
  42020 05/06/2018 00:30:00    3.76    1.37    4.00      70     0.0     0     1
  42020 05/06/2018 00:40:00    3.76    1.37    4.00      70     0.0     0     1
  42020 05/06/2018 00:50:00    3.76    1.37    4.00      70     0.0     0     1
  42020 05/06/2018 06:00:00    3.23    1.12    3.42      71     0.2     1    31
  42020 05/06/2018 06:10:00    1.00    0.00    1.00      90     0.9     0     1
  42020 05/06/2018 06:20:00    0.87    0.50    1.00      60     0.9     8     1
  42020 05/06/2018 06:30:00    0.64    0.77    1.00      40     0.0     0     1
  42020 05/06/2018 06:40:00    0.64    0.77    1.00      40     0.0     0     1
  42020 05/06/2018 06:50:00   97.78   15.49   99.00      81     0.0     0     1
  42020 05/06/2018 12:00:00    5.53    3.23    6.41      60     0.2     1    31
  42020 05/06/2018 12:10:00    0.00    3.00    3.00       0     0.0     0     1
  42020 05/06/2018 12:20:00    0.00    3.00    3.00       0     0.7     8     1
  42020 05/06/2018 12:30:00    0.52    2.95    3.00      10     0.0     0     1
  42020 05/06/2018 12:40:00    0.52    2.95    3.00      10     0.0     0     1
  42020 05/06/2018 12:50:00    0.52    2.95    3.00      10     0.0     0     1